Time;durP1;ratioP1;P1;durP2;ratioP2;P2;SDS_P1;SDS_P2;PMS_P1;PMS_P2;Temp;Humidity;BMP_temperature;BMP_pressure;BME280_temperature;BME280_humidity;BME280_pressure;Samples;Min_cycle;Max_cycle;Signal;HPM_P1;HPM_P2
2023/09/27 00:00:59;;;;;;;11.90;7.30;;;;;;;12.20;100.00;100972.38;4964442;28;20307;-77
2023/09/27 00:03:26;;;;;;;10.53;7.13;;;;;;;12.23;100.00;100968.88;5045529;22;20230;-72
2023/09/27 00:05:52;;;;;;;11.27;6.97;;;;;;;12.22;100.00;100977.72;5040286;28;20661;-73
2023/09/27 00:08:19;;;;;;;10.47;7.27;;;;;;;12.08;100.00;100979.28;5046311;28;20285;-72
2023/09/27 00:10:46;;;;;;;11.63;6.20;;;;;;;11.94;100.00;100976.34;5037303;28;20298;-73
2023/09/27 00:13:12;;;;;;;9.87;7.00;;;;;;;11.84;100.00;100970.00;5031956;28;20229;-73
2023/09/27 00:15:39;;;;;;;11.23;7.37;;;;;;;11.76;100.00;100971.59;5029354;28;20225;-72
2023/09/27 00:18:06;;;;;;;13.33;7.17;;;;;;;11.75;100.00;100980.44;5028383;28;20198;-74
2023/09/27 00:20:32;;;;;;;9.47;6.73;;;;;;;11.69;100.00;100972.38;5022546;28;20791;-72
2023/09/27 00:22:59;;;;;;;10.00;6.93;;;;;;;11.64;100.00;100967.84;5027889;28;20606;-73
2023/09/27 00:25:25;;;;;;;10.17;6.90;;;;;;;11.59;100.00;100965.09;5029802;28;20305;-73
2023/09/27 00:27:52;;;;;;;9.23;6.40;;;;;;;11.54;100.00;100967.66;5029484;28;20576;-73
2023/09/27 00:30:18;;;;;;;12.03;7.13;;;;;;;11.69;100.00;100969.72;5023718;28;20567;-72
2023/09/27 00:32:45;;;;;;;10.50;6.97;;;;;;;11.68;100.00;100969.69;5020628;28;20222;-70
2023/09/27 00:35:19;;;;;;;10.13;7.20;;;;;;;11.75;100.00;100964.50;5027650;28;20254;-73
2023/09/27 00:37:46;;;;;;;11.93;7.23;;;;;;;11.85;100.00;100966.50;5028421;28;20599;-73
2023/09/27 00:40:15;;;;;;;9.07;6.40;;;;;;;11.76;100.00;100970.72;5024508;28;20576;-73
2023/09/27 00:42:43;;;;;;;9.60;6.90;;;;;;;11.61;100.00;100969.59;5025096;28;20239;-72
2023/09/27 00:45:10;;;;;;;11.10;7.03;;;;;;;11.54;100.00;100970.31;5029095;28;20571;-74
2023/09/27 00:47:37;;;;;;;10.77;7.10;;;;;;;11.51;100.00;100964.94;5026706;28;20205;-73
2023/09/27 00:50:08;;;;;;;12.20;6.97;;;;;;;11.53;100.00;100962.31;5027517;28;20285;-73
2023/09/27 00:52:40;;;;;;;13.47;7.70;;;;;;;11.50;100.00;100956.97;5017389;28;20227;-73
2023/09/27 00:55:11;;;;;;;11.57;7.17;;;;;;;11.42;100.00;100946.22;5027203;28;20229;-74
2023/09/27 00:57:39;;;;;;;11.47;7.40;;;;;;;11.54;100.00;100942.88;5028534;28;20229;-71
2023/09/27 01:00:09;;;;;;;16.17;8.23;;;;;;;11.82;100.00;100955.81;5028096;28;20227;-72
2023/09/27 01:02:37;;;;;;;12.13;7.30;;;;;;;11.87;100.00;100956.78;5024122;28;20254;-72
2023/09/27 01:05:08;;;;;;;14.63;8.10;;;;;;;11.81;100.00;100956.69;5026763;28;20203;-73
2023/09/27 01:07:35;;;;;;;11.30;7.30;;;;;;;11.71;100.00;100954.72;5027909;28;20588;-69
2023/09/27 01:10:01;;;;;;;11.27;7.70;;;;;;;11.66;100.00;100951.09;5027799;28;20218;-74
2023/09/27 01:12:28;;;;;;;11.83;7.40;;;;;;;11.60;100.00;100954.50;5021905;28;20248;-74
2023/09/27 01:14:56;;;;;;;11.47;7.40;;;;;;;11.45;100.00;100938.31;5023610;28;20222;-71
2023/09/27 01:17:22;;;;;;;11.03;7.50;;;;;;;11.41;100.00;100946.19;5026318;28;20725;-73
2023/09/27 01:19:49;;;;;;;10.47;7.17;;;;;;;11.37;100.00;100945.25;5020817;28;20213;-74
2023/09/27 01:22:15;;;;;;;12.70;8.17;;;;;;;11.39;100.00;100950.56;5019895;28;20335;-74
2023/09/27 01:24:43;;;;;;;12.33;7.37;;;;;;;11.34;100.00;100950.47;5025799;28;20193;-72
2023/09/27 01:27:09;;;;;;;10.77;7.63;;;;;;;11.26;100.00;100945.03;5026908;28;20357;-73
2023/09/27 01:29:36;;;;;;;11.30;7.07;;;;;;;11.16;100.00;100935.09;5027008;28;20198;-72
2023/09/27 01:32:02;;;;;;;10.40;6.90;;;;;;;11.09;100.00;100929.66;5021863;28;20317;-74
2023/09/27 01:34:29;;;;;;;10.00;7.00;;;;;;;11.03;100.00;100945.44;5026806;28;20230;-74
2023/09/27 01:36:55;;;;;;;11.23;7.30;;;;;;;10.92;100.00;100939.91;5023379;28;20202;-73
2023/09/27 01:39:24;;;;;;;10.10;6.57;;;;;;;10.91;100.00;100943.44;5025165;28;20209;-72
2023/09/27 01:41:50;;;;;;;8.90;6.23;;;;;;;10.86;100.00;100932.75;5022216;28;20218;-73
2023/09/27 01:44:18;;;;;;;11.67;7.67;;;;;;;10.81;100.00;100933.50;5028763;28;20241;-74
2023/09/27 01:46:45;;;;;;;10.97;7.57;;;;;;;10.79;100.00;100936.09;5028247;28;20289;-74
2023/09/27 01:49:11;;;;;;;11.17;7.40;;;;;;;10.82;100.00;100930.00;5026622;28;20229;-74
2023/09/27 01:51:37;;;;;;;11.93;7.10;;;;;;;10.85;100.00;100936.25;5024282;28;20585;-72
2023/09/27 01:54:04;;;;;;;11.43;7.70;;;;;;;10.82;100.00;100922.03;5027670;28;20232;-74
2023/09/27 01:56:31;;;;;;;13.07;8.30;;;;;;;10.76;100.00;100921.88;5027199;28;20681;-74
2023/09/27 01:58:57;;;;;;;13.97;7.67;;;;;;;10.85;100.00;100941.56;5028071;28;20199;-73
2023/09/27 02:01:23;;;;;;;11.60;8.13;;;;;;;10.94;100.00;100946.13;5019211;28;20223;-73
2023/09/27 02:03:50;;;;;;;12.10;8.03;;;;;;;10.88;100.00;100944.25;5027732;28;20244;-74
2023/09/27 02:06:17;;;;;;;15.10;8.47;;;;;;;10.87;100.00;100950.44;5027729;28;20198;-74
2023/09/27 02:08:43;;;;;;;14.33;8.77;;;;;;;11.01;100.00;100955.09;5019918;28;20274;-72
2023/09/27 02:11:09;;;;;;;11.07;7.83;;;;;;;10.92;100.00;100959.38;5028062;28;20284;-72
2023/09/27 02:13:36;;;;;;;11.20;7.80;;;;;;;10.83;100.00;100956.53;5021779;28;20250;-71
2023/09/27 02:16:02;;;;;;;13.30;7.63;;;;;;;10.75;100.00;100949.25;5027504;28;20307;-72
2023/09/27 02:18:29;;;;;;;13.27;8.23;;;;;;;10.71;100.00;100966.84;5026684;28;20754;-74
2023/09/27 02:20:55;;;;;;;14.07;8.20;;;;;;;10.69;100.00;100963.25;5025968;28;20314;-73
2023/09/27 02:23:22;;;;;;;15.50;9.03;;;;;;;10.88;100.00;100981.34;5025452;28;20336;-73
2023/09/27 02:25:56;;;;;;;16.90;8.77;;;;;;;10.94;100.00;100977.94;5027261;28;20653;-70
2023/09/27 02:28:23;;;;;;;12.30;8.23;;;;;;;10.96;100.00;100982.41;5027741;28;20268;-73
2023/09/27 02:30:49;;;;;;;13.07;8.47;;;;;;;10.93;100.00;100986.75;5026068;28;20226;-74
2023/09/27 02:33:17;;;;;;;13.47;8.40;;;;;;;10.88;100.00;100994.63;5023331;28;20227;-74
2023/09/27 02:35:46;;;;;;;12.03;7.70;;;;;;;10.72;100.00;100997.75;5027436;28;20297;-73
2023/09/27 02:38:14;;;;;;;13.17;7.73;;;;;;;10.63;100.00;100995.81;5027458;28;20215;-74
2023/09/27 02:40:41;;;;;;;11.60;7.53;;;;;;;10.57;100.00;101010.66;5027531;28;20203;-72
2023/09/27 02:43:07;;;;;;;14.57;8.00;;;;;;;10.57;100.00;100995.66;5021159;28;20309;-75
2023/09/27 02:45:36;;;;;;;14.03;7.93;;;;;;;10.56;100.00;100995.63;5025723;28;20702;-73
2023/09/27 02:48:03;;;;;;;11.57;7.87;;;;;;;10.51;100.00;101003.47;5025940;28;20686;-74
2023/09/27 02:50:30;;;;;;;12.30;7.70;;;;;;;10.46;100.00;100999.84;5041980;28;20207;-73
2023/09/27 02:52:57;;;;;;;12.20;8.50;;;;;;;10.43;100.00;101002.41;5021616;28;20229;-73
2023/09/27 02:55:23;;;;;;;13.17;7.80;;;;;;;10.41;100.00;100990.00;5025464;28;20231;-73
2023/09/27 02:57:50;;;;;;;11.03;7.80;;;;;;;10.34;100.00;100988.94;5026896;28;20203;-73
2023/09/27 03:00:20;;;;;;;12.23;7.77;;;;;;;10.39;100.00;100996.97;5021933;28;20222;-73
2023/09/27 03:02:47;;;;;;;13.23;8.43;;;;;;;10.40;100.00;100990.81;5025068;28;20342;-75
2023/09/27 03:05:14;;;;;;;11.33;7.80;;;;;;;10.48;100.00;101003.41;5025270;28;20195;-75
2023/09/27 03:07:44;;;;;;;12.43;8.30;;;;;;;10.80;100.00;101011.16;5027941;28;20208;-74
2023/09/27 03:10:11;;;;;;;15.93;8.77;;;;;;;10.73;100.00;101011.91;5026308;28;20231;-73
2023/09/27 03:12:39;;;;;;;12.17;7.57;;;;;;;10.52;100.00;101015.84;5026675;28;20605;-76
2023/09/27 03:15:10;;;;;;;14.80;8.63;;;;;;;10.44;100.00;101019.19;5030335;28;20245;-77
2023/09/27 03:17:39;;;;;;;12.67;8.03;;;;;;;10.35;100.00;101003.94;5028620;28;20200;-81
2023/09/27 03:20:15;;;;;;;14.00;8.60;;;;;;;10.58;100.00;101031.00;5028751;28;20297;-79
2023/09/27 03:22:43;;;;;;;13.53;8.23;;;;;;;10.46;100.00;101034.25;5023454;28;20224;-80
2023/09/27 03:25:09;;;;;;;13.20;8.40;;;;;;;10.49;100.00;101041.38;5030274;28;20831;-80
2023/09/27 03:27:36;;;;;;;13.07;8.80;;;;;;;10.37;100.00;101049.88;5030404;28;20664;-77
2023/09/27 03:30:04;;;;;;;11.97;8.20;;;;;;;10.41;100.00;101048.25;5028291;28;20205;-75
2023/09/27 03:32:32;;;;;;;11.83;7.73;;;;;;;10.39;100.00;101044.63;5024832;28;20330;-74
2023/09/27 03:34:59;;;;;;;14.57;7.93;;;;;;;10.27;100.00;101026.69;5030049;28;20234;-74
2023/09/27 03:37:26;;;;;;;13.90;8.97;;;;;;;10.28;100.00;101015.25;5029722;28;20677;-74
2023/09/27 03:39:52;;;;;;;14.50;8.50;;;;;;;10.24;100.00;100995.75;5030442;28;20204;-73
2023/09/27 03:42:20;;;;;;;17.20;10.23;;;;;;;10.31;100.00;100983.56;5026045;28;20226;-76
2023/09/27 03:44:50;;;;;;;13.83;8.87;;;;;;;10.28;100.00;100976.44;5031305;28;20206;-75
2023/09/27 03:47:16;;;;;;;14.33;9.07;;;;;;;10.28;100.00;100981.72;5028219;28;20629;-75
2023/09/27 03:49:43;;;;;;;15.93;9.27;;;;;;;10.42;100.00;100989.13;5029977;28;20273;-76
2023/09/27 03:52:10;;;;;;;18.90;9.90;;;;;;;10.75;100.00;101000.47;5022457;28;20228;-75
2023/09/27 03:54:36;;;;;;;20.00;9.90;;;;;;;10.76;100.00;101002.25;5030659;28;20590;-73
2023/09/27 03:57:03;;;;;;;16.00;9.47;;;;;;;10.71;100.00;101001.28;5029523;28;20242;-76
2023/09/27 03:59:30;;;;;;;15.67;9.33;;;;;;;10.51;100.00;100995.53;5028723;28;20279;-78
2023/09/27 04:01:56;;;;;;;15.07;8.20;;;;;;;10.35;100.00;101002.19;5023881;28;20234;-75
2023/09/27 04:04:23;;;;;;;13.10;8.70;;;;;;;10.28;100.00;100996.72;5029798;28;20203;-75
2023/09/27 04:06:51;;;;;;;12.93;8.10;;;;;;;10.17;100.00;100991.16;5029732;28;20210;-75
2023/09/27 04:09:17;;;;;;;15.43;8.40;;;;;;;10.14;100.00;100998.13;5027198;28;20196;-72
2023/09/27 04:11:44;;;;;;;15.20;8.77;;;;;;;10.23;100.00;101008.97;5022598;28;20653;-74
2023/09/27 04:14:11;;;;;;;16.60;8.83;;;;;;;10.50;100.00;101003.44;5024968;28;20580;-74
2023/09/27 04:16:38;;;;;;;19.73;9.77;;;;;;;10.49;100.00;101004.31;5029155;28;20314;-74
2023/09/27 04:19:04;;;;;;;16.03;8.93;;;;;;;10.25;100.00;100997.53;5029323;28;20701;-73
2023/09/27 04:21:30;;;;;;;12.33;8.47;;;;;;;10.13;100.00;100999.88;5027395;28;20206;-73
2023/09/27 04:23:57;;;;;;;15.10;9.40;;;;;;;10.22;100.00;101005.41;5024498;28;20286;-74
2023/09/27 04:26:24;;;;;;;14.50;9.30;;;;;;;10.24;100.00;101010.75;5029162;28;20857;-73
2023/09/27 04:28:52;;;;;;;14.50;8.77;;;;;;;10.13;100.00;101013.09;5027239;28;20221;-73
2023/09/27 04:31:19;;;;;;;14.47;8.40;;;;;;;9.99;100.00;101009.19;5022747;28;20208;-76
2023/09/27 04:33:47;;;;;;;12.33;7.90;;;;;;;9.89;100.00;101012.47;5024801;28;20724;-74
2023/09/27 04:36:17;;;;;;;13.17;8.90;;;;;;;9.82;100.00;101002.59;5022885;28;20243;-70
2023/09/27 04:38:45;;;;;;;13.97;8.27;;;;;;;9.90;100.00;101001.91;5026902;28;20759;-72
2023/09/27 04:41:16;;;;;;;13.73;8.40;;;;;;;9.82;100.00;101000.81;5023765;28;20205;-73
2023/09/27 04:43:43;;;;;;;12.83;7.20;;;;;;;9.74;100.00;101005.03;5020645;28;20228;-71
2023/09/27 04:46:17;;;;;;;13.27;8.30;;;;;;;9.67;100.00;100995.16;5030045;28;20737;-70
2023/09/27 04:48:44;;;;;;;13.13;7.57;;;;;;;9.62;100.00;100996.78;5025208;28;20203;-74
2023/09/27 04:51:10;;;;;;;13.27;8.07;;;;;;;9.61;100.00;100992.34;5024205;28;20213;-75
2023/09/27 04:53:37;;;;;;;13.73;8.80;;;;;;;9.63;100.00;100995.94;5020328;28;20229;-72
2023/09/27 04:56:10;;;;;;;13.67;8.87;;;;;;;9.66;100.00;100999.53;5024157;28;20231;-73
2023/09/27 04:58:38;;;;;;;15.37;9.23;;;;;;;9.73;100.00;101005.88;5025617;28;20260;-73
2023/09/27 05:01:05;;;;;;;12.97;8.17;;;;;;;9.68;100.00;100995.19;5024981;28;20677;-71
2023/09/27 05:03:32;;;;;;;16.90;9.53;;;;;;;9.79;100.00;100999.84;5024262;28;20227;-72
2023/09/27 05:05:59;;;;;;;14.07;8.50;;;;;;;9.90;100.00;101003.66;5026254;28;20588;-73
2023/09/27 05:08:26;;;;;;;15.13;8.90;;;;;;;10.07;100.00;101001.47;5025877;28;20208;-72
2023/09/27 05:10:52;;;;;;;15.63;9.80;;;;;;;10.24;100.00;101010.75;5025389;28;20218;-75
2023/09/27 05:13:21;;;;;;;15.97;9.20;;;;;;;10.35;100.00;101027.78;5023990;28;20315;-72
2023/09/27 05:15:49;;;;;;;16.80;9.53;;;;;;;10.45;100.00;101031.56;5026545;28;20230;-72
2023/09/27 05:18:15;;;;;;;16.50;9.67;;;;;;;10.44;100.00;101022.72;5026785;28;20233;-73
2023/09/27 05:20:43;;;;;;;20.03;10.43;;;;;;;10.43;100.00;101023.59;5024536;28;20200;-76
2023/09/27 05:23:11;;;;;;;25.57;10.20;;;;;;;10.56;100.00;101033.59;5025307;28;20230;-72
2023/09/27 05:25:38;;;;;;;18.50;10.47;;;;;;;10.67;100.00;101041.81;5024130;28;20207;-73
2023/09/27 05:28:04;;;;;;;30.57;12.27;;;;;;;10.72;100.00;101048.09;5021040;28;20204;-73
2023/09/27 05:30:31;;;;;;;25.83;12.53;;;;;;;10.77;100.00;101045.53;5021822;28;20256;-72
2023/09/27 05:32:57;;;;;;;34.63;12.03;;;;;;;10.85;100.00;101038.69;5028147;28;20223;-73
2023/09/27 05:35:24;;;;;;;25.03;11.37;;;;;;;10.84;100.00;101028.97;5025636;28;20196;-71
2023/09/27 05:37:50;;;;;;;21.93;10.93;;;;;;;10.89;100.00;101036.16;5024990;28;20208;-73
2023/09/27 05:40:17;;;;;;;24.97;11.47;;;;;;;10.94;100.00;101028.28;5023343;28;20202;-74
2023/09/27 05:42:43;;;;;;;23.33;11.70;;;;;;;11.05;100.00;101040.03;5027102;28;20219;-72
2023/09/27 05:45:11;;;;;;;24.87;12.30;;;;;;;11.05;100.00;101036.47;5024532;28;21700;-72
2023/09/27 05:47:39;;;;;;;28.23;12.07;;;;;;;11.10;100.00;101030.41;5026075;28;20210;-73
2023/09/27 05:50:08;;;;;;;20.27;11.27;;;;;;;11.11;100.00;101024.25;5023106;28;20235;-75
2023/09/27 05:52:35;;;;;;;21.80;11.50;;;;;;;11.16;100.00;101032.28;5025030;28;20323;-75
2023/09/27 05:55:05;;;;;;;19.17;10.70;;;;;;;11.19;100.00;101022.63;5023758;28;20690;-74
2023/09/27 05:57:32;;;;;;;26.93;12.33;;;;;;;11.37;100.00;101026.56;5026464;28;20303;-74
2023/09/27 06:00:00;;;;;;;30.80;12.23;;;;;;;11.37;100.00;101034.50;5024512;28;20235;-73
2023/09/27 06:02:31;;;;;;;53.73;12.73;;;;;;;11.40;100.00;101035.47;5062895;22;20276;-83
2023/09/27 06:04:59;;;;;;;22.80;12.53;;;;;;;11.44;100.00;101026.69;5008943;28;20215;-82
2023/09/27 06:07:26;;;;;;;26.50;12.33;;;;;;;11.51;100.00;101028.59;5012761;28;20205;-84
2023/09/27 06:09:52;;;;;;;28.30;12.00;;;;;;;11.57;100.00;101019.88;5015837;28;20210;-85
2023/09/27 06:12:18;;;;;;;28.40;12.47;;;;;;;11.64;100.00;101013.84;5020132;28;20225;-84
2023/09/27 06:14:45;;;;;;;45.17;13.77;;;;;;;11.63;100.00;101011.16;5003661;28;20264;-83
2023/09/27 06:17:15;;;;;;;29.57;11.73;;;;;;;11.73;100.00;101011.34;5002400;28;20307;-81
2023/09/27 06:19:42;;;;;;;22.17;12.30;;;;;;;11.85;100.00;101011.59;5005368;28;20816;-81
2023/09/27 06:22:09;;;;;;;29.10;12.50;;;;;;;12.00;100.00;101015.38;5005506;28;20210;-82
2023/09/27 06:24:35;;;;;;;48.40;12.27;;;;;;;12.02;100.00;101016.34;5007946;28;20201;-82
2023/09/27 06:27:02;;;;;;;66.50;12.80;;;;;;;11.90;100.00;101017.88;5002633;28;20660;-82
2023/09/27 06:29:29;;;;;;;79.07;12.53;;;;;;;11.94;100.00;101021.47;4987622;28;20700;-80
2023/09/27 06:31:56;;;;;;;41.40;12.13;;;;;;;11.90;100.00;101007.28;4989560;28;20209;-81
2023/09/27 06:34:23;;;;;;;17.17;10.30;;;;;;;11.92;100.00;101013.50;5003602;28;20285;-80
2023/09/27 06:36:51;;;;;;;22.57;10.33;;;;;;;11.97;100.00;101012.69;5007392;28;20217;-81
2023/09/27 06:39:19;;;;;;;24.40;10.90;;;;;;;11.98;100.00;101014.47;5006926;28;20206;-83
2023/09/27 06:41:45;;;;;;;18.23;10.70;;;;;;;12.03;100.00;101011.06;4989308;28;20583;-81
2023/09/27 06:44:14;;;;;;;16.57;10.07;;;;;;;12.12;100.00;101013.88;5005110;28;20227;-80
2023/09/27 06:46:41;;;;;;;26.70;10.97;;;;;;;12.18;100.00;101006.00;5005151;28;20199;-80
2023/09/27 06:49:12;;;;;;;17.77;11.93;;;;;;;12.38;100.00;101008.97;5007184;28;20295;-79
2023/09/27 06:51:38;;;;;;;22.27;11.37;;;;;;;12.40;100.00;101011.63;5008325;28;20312;-79
2023/09/27 06:54:05;;;;;;;17.73;10.37;;;;;;;12.40;100.00;101017.84;4991013;28;20314;-76
2023/09/27 06:56:32;;;;;;;19.90;11.97;;;;;;;12.49;100.00;101009.16;5007986;28;20251;-75
2023/09/27 06:58:59;;;;;;;19.07;11.73;;;;;;;12.65;100.00;101002.28;5006917;28;20239;-73
2023/09/27 07:01:25;;;;;;;22.30;12.13;;;;;;;12.57;100.00;101012.81;5008046;28;20196;-74
2023/09/27 07:03:52;;;;;;;34.97;16.40;;;;;;;12.55;100.00;101022.53;4990894;28;20228;-73
2023/09/27 07:06:18;;;;;;;27.60;14.33;;;;;;;12.64;100.00;101029.75;5008291;28;20496;-75
2023/09/27 07:08:52;;;;;;;23.00;12.17;;;;;;;12.63;100.00;101019.97;4990665;28;20219;-83
2023/09/27 07:11:19;;;;;;;30.90;14.27;;;;;;;12.61;100.00;101032.34;5010538;28;20235;-82
2023/09/27 07:13:46;;;;;;;25.33;13.70;;;;;;;12.70;100.00;101028.06;5015028;28;21003;-80
2023/09/27 07:16:26;;;;;;;32.13;15.70;;;;;;;12.84;100.00;101037.16;4999697;28;20226;-80
2023/09/27 07:18:53;;;;;;;26.63;14.40;;;;;;;12.97;100.00;101027.56;4999390;28;20242;-82
2023/09/27 07:21:21;;;;;;;32.33;15.70;;;;;;;13.10;100.00;101024.19;5010025;28;20215;-82
2023/09/27 07:23:49;;;;;;;31.03;16.30;;;;;;;13.24;100.00;101024.44;5012787;28;20231;-81
2023/09/27 07:26:18;;;;;;;28.40;15.47;;;;;;;13.27;100.00;101027.13;4991400;28;20208;-80
2023/09/27 07:28:46;;;;;;;33.63;17.37;;;;;;;13.29;100.00;101032.47;4989964;28;20213;-81
2023/09/27 07:31:16;;;;;;;33.53;17.67;;;;;;;13.31;100.00;101036.03;5011641;28;20227;-82
2023/09/27 07:33:44;;;;;;;32.90;17.50;;;;;;;13.41;100.00;101043.25;4994822;28;20224;-80
2023/09/27 07:36:11;;;;;;;32.40;16.47;;;;;;;13.41;100.00;101037.94;5010161;28;20698;-81
2023/09/27 07:38:39;;;;;;;33.80;18.37;;;;;;;13.46;100.00;101041.53;5011609;28;20235;-81
2023/09/27 07:41:08;;;;;;;33.53;16.70;;;;;;;13.67;100.00;101043.56;4994170;28;20212;-80
2023/09/27 07:43:36;;;;;;;28.87;16.80;;;;;;;13.67;100.00;101048.91;5012182;28;20235;-80
2023/09/27 07:46:06;;;;;;;28.70;15.93;;;;;;;13.67;100.00;101046.22;5014303;28;20208;-79
2023/09/27 07:48:37;;;;;;;31.60;16.30;;;;;;;13.78;100.00;101045.47;5010282;28;20207;-80
2023/09/27 07:51:18;;;;;;;31.17;17.80;;;;;;;13.83;100.00;101053.50;5006508;28;20287;-80
2023/09/27 07:53:47;;;;;;;31.60;17.43;;;;;;;13.87;100.00;101052.66;4997423;28;20609;-74
2023/09/27 07:56:22;;;;;;;30.77;16.80;;;;;;;14.03;100.00;101046.63;4988547;28;20270;-74
2023/09/27 07:58:51;;;;;;;34.03;17.50;;;;;;;14.20;100.00;101043.22;4990232;28;20680;-75
2023/09/27 08:01:20;;;;;;;34.17;18.07;;;;;;;14.31;100.00;101037.09;4988388;28;21800;-73
2023/09/27 08:03:55;;;;;;;29.03;16.47;;;;;;;14.49;100.00;101046.19;4988615;28;20327;-73
2023/09/27 08:06:23;;;;;;;30.53;16.13;;;;;;;14.69;100.00;101040.09;5009018;28;20200;-74
2023/09/27 08:08:51;;;;;;;27.50;16.23;;;;;;;14.81;100.00;101039.31;5006464;28;20226;-72
2023/09/27 08:11:18;;;;;;;25.73;14.80;;;;;;;14.97;100.00;101045.63;5005720;28;20204;-72
2023/09/27 08:13:44;;;;;;;23.10;13.87;;;;;;;15.14;100.00;101035.03;5002013;28;20271;-72
2023/09/27 08:16:11;;;;;;;22.00;13.13;;;;;;;15.31;100.00;101042.25;5003948;28;20702;-72
2023/09/27 08:18:37;;;;;;;26.30;14.20;;;;;;;15.46;100.00;101052.09;5008127;28;20196;-72
2023/09/27 08:21:04;;;;;;;25.27;14.63;;;;;;;15.50;100.00;101048.53;5004719;28;20351;-72
2023/09/27 08:23:32;;;;;;;25.30;13.30;;;;;;;15.60;100.00;101044.16;5005245;28;20220;-73
2023/09/27 08:25:58;;;;;;;25.57;14.10;;;;;;;15.70;100.00;101045.09;5009097;28;20209;-73
2023/09/27 08:28:25;;;;;;;23.07;13.37;;;;;;;15.85;100.00;101046.03;5008019;28;20197;-72
2023/09/27 08:30:57;;;;;;;18.00;12.27;;;;;;;15.93;100.00;101038.00;5005624;28;20207;-73
2023/09/27 08:33:23;;;;;;;22.10;12.60;;;;;;;16.09;100.00;101034.50;4999861;28;20227;-72
2023/09/27 08:35:52;;;;;;;24.30;13.13;;;;;;;16.24;100.00;101023.81;5007831;28;20212;-73
2023/09/27 08:38:18;;;;;;;21.47;12.53;;;;;;;16.44;100.00;101021.16;5005733;28;20655;-73
2023/09/27 08:40:48;;;;;;;20.83;12.10;;;;;;;16.61;100.00;101023.81;5006592;28;20206;-74
2023/09/27 08:43:15;;;;;;;20.97;12.63;;;;;;;16.75;100.00;101022.03;5004025;28;20227;-75
2023/09/27 08:45:43;;;;;;;23.23;14.47;;;;;;;16.86;100.00;101001.50;5002745;28;20259;-74
2023/09/27 08:48:13;;;;;;;21.77;13.13;;;;;;;17.01;100.00;101005.03;4988318;28;20665;-75
2023/09/27 08:50:40;;;;;;;21.93;13.57;;;;;;;17.18;100.00;101001.38;5007291;28;20556;-75
2023/09/27 08:53:06;;;;;;;23.73;13.13;;;;;;;17.40;100.00;101012.91;5006670;28;20236;-75
2023/09/27 08:55:34;;;;;;;22.10;13.40;;;;;;;17.52;100.00;101012.84;5006796;28;20259;-75
2023/09/27 08:58:02;;;;;;;22.07;13.27;;;;;;;17.76;100.00;101019.00;5005244;28;20354;-72
2023/09/27 09:00:32;;;;;;;28.07;13.40;;;;;;;17.99;100.00;101008.13;5003899;28;20208;-76
2023/09/27 09:03:00;;;;;;;22.20;11.30;;;;;;;18.16;100.00;101011.59;5004804;28;20232;-76
2023/09/27 09:05:29;;;;;;;22.50;13.07;;;;;;;18.35;100.00;101002.47;5002069;28;20207;-74
2023/09/27 09:07:57;;;;;;;22.00;12.00;;;;;;;18.51;100.00;101005.06;5003437;28;20643;-74
2023/09/27 09:10:23;;;;;;;19.30;13.13;;;;;;;18.78;100.00;100994.06;4990392;28;20207;-73
2023/09/27 09:12:51;;;;;;;15.43;10.90;;;;;;;19.00;100.00;100995.63;5008473;28;20254;-73
2023/09/27 09:15:28;;;;;;;17.60;11.05;;;;;;;19.31;100.00;100997.94;5005264;28;20346;-73
2023/09/27 09:17:59;;;;;;;16.58;11.00;;;;;;;19.57;100.00;100998.50;5009260;28;20535;-73
2023/09/27 09:20:32;;;;;;;20.92;10.43;;;;;;;19.86;100.00;100990.03;5008505;28;20239;-73
2023/09/27 09:23:06;;;;;;;18.05;10.65;;;;;;;20.21;100.00;101000.22;5006387;28;20246;-73
2023/09/27 09:25:42;;;;;;;15.45;9.52;;;;;;;20.47;100.00;100986.38;5010558;28;20318;-73
2023/09/27 09:28:08;;;;;;;17.58;9.95;;;;;;;20.72;100.00;100988.63;5009261;28;20254;-72
2023/09/27 09:30:35;;;;;;;19.83;11.05;;;;;;;20.82;100.00;100990.25;5000727;28;20311;-73
2023/09/27 09:33:03;;;;;;;18.70;10.40;;;;;;;20.89;100.00;100997.28;5006715;28;20227;-73
2023/09/27 09:35:34;;;;;;;14.73;10.07;;;;;;;21.01;100.00;100991.66;4989229;28;20294;-73
2023/09/27 09:38:03;;;;;;;17.67;10.93;;;;;;;21.26;100.00;100981.31;5003198;28;20311;-73
2023/09/27 09:40:31;;;;;;;21.45;11.70;;;;;;;21.19;100.00;100974.22;5004913;28;20218;-73
2023/09/27 09:42:59;;;;;;;19.42;11.20;;;;;;;21.26;100.00;100974.09;5003000;28;20225;-72
2023/09/27 09:45:26;;;;;;;15.50;9.95;;;;;;;21.20;100.00;100963.41;5006013;28;20200;-73
2023/09/27 09:47:53;;;;;;;17.65;11.05;;;;;;;21.34;100.00;100968.53;5000682;28;20706;-74
2023/09/27 09:50:20;;;;;;;16.00;11.57;;;;;;;21.63;100.00;100977.81;5005165;28;20274;-73
2023/09/27 09:52:57;;;;;;;17.38;11.20;;;;;;;21.71;100.00;100975.81;5006507;28;20247;-72
2023/09/27 09:55:26;;;;;;;13.80;9.45;;;;;;;21.72;100.00;100973.09;4987469;28;20214;-72
2023/09/27 09:58:15;;;;;;;12.35;8.98;;;;;;;21.74;100.00;100982.03;5005612;28;20707;-73
2023/09/27 10:00:49;;;;;;;17.92;10.55;;;;;;;21.79;100.00;100968.44;5004501;28;20291;-73
2023/09/27 10:03:20;;;;;;;14.95;10.98;;;;;;;21.88;100.00;100970.91;5003623;28;20238;-72
2023/09/27 10:05:50;;;;;;;17.00;9.45;;;;;;;21.93;100.00;100976.19;5003863;28;20689;-73
2023/09/27 10:08:20;;;;;;;19.23;10.45;;;;;;;21.81;100.00;100972.88;5000437;28;20208;-72
2023/09/27 10:10:47;;;;;;;16.98;11.23;;;;;;;21.88;100.00;100974.50;4997022;28;20196;-71
2023/09/27 10:13:14;;;;;;;17.65;12.43;;;;;;;21.86;100.00;100975.44;4981287;28;20311;-73
2023/09/27 10:15:42;;;;;;;18.23;12.25;;;;;;;21.96;100.00;100976.09;4985273;28;20246;-73
2023/09/27 10:18:24;;;;;;;17.90;12.23;;;;;;;21.64;100.00;100984.97;5005412;28;20768;-72
2023/09/27 10:21:06;;;;;;;16.70;10.40;;;;;;;22.02;100.00;100986.78;5006027;28;20257;-73
2023/09/27 10:23:39;;;;;;;15.18;10.40;;;;;;;22.41;97.99;100983.09;5007459;28;20224;-72
2023/09/27 10:26:22;;;;;;;16.10;10.88;;;;;;;22.91;92.57;100980.03;5008890;28;20231;-72
2023/09/27 10:29:00;;;;;;;19.63;11.40;;;;;;;23.13;88.88;100971.25;5007259;28;20238;-71
2023/09/27 10:31:28;;;;;;;16.02;11.00;;;;;;;23.28;85.45;100966.34;5008685;28;20253;-72
2023/09/27 10:33:55;;;;;;;19.42;11.52;;;;;;;23.17;87.58;100961.22;4991761;28;20266;-72
2023/09/27 10:36:21;;;;;;;17.52;11.20;;;;;;;23.15;85.15;100965.78;5006710;28;20283;-71
2023/09/27 10:38:50;;;;;;;16.92;11.00;;;;;;;22.84;88.82;100970.31;5006577;28;20224;-72
2023/09/27 10:41:32;;;;;;;13.77;10.02;;;;;;;22.63;90.85;100969.03;5007365;28;20227;-72
2023/09/27 10:44:02;;;;;;;13.20;9.60;;;;;;;22.37;96.05;100957.09;5010173;28;20224;-73
2023/09/27 10:46:48;;;;;;;17.75;10.52;;;;;;;22.12;98.30;100955.97;5006604;28;20204;-72
2023/09/27 10:49:24;;;;;;;15.20;9.40;;;;;;;22.13;100.00;100958.66;5007116;28;20583;-72
2023/09/27 10:51:54;;;;;;;12.05;8.85;;;;;;;22.26;98.88;100956.50;5010198;28;20226;-71
2023/09/27 10:54:33;;;;;;;15.07;9.40;;;;;;;22.41;99.91;100937.19;5008253;28;20601;-72
2023/09/27 10:57:02;;;;;;;16.52;11.27;;;;;;;22.51;92.20;100930.66;5009084;28;20230;-72
2023/09/27 10:59:29;;;;;;;16.10;10.82;;;;;;;22.37;92.70;100937.34;5007944;28;20204;-73
2023/09/27 11:01:56;;;;;;;15.40;10.25;;;;;;;22.45;90.45;100932.66;5015324;28;20332;-72
2023/09/27 11:04:24;;;;;;;13.50;9.07;;;;;;;22.51;91.08;100936.06;5014939;28;20200;-71
2023/09/27 11:06:51;;;;;;;13.43;8.15;;;;;;;22.68;92.90;100926.59;5009464;28;20205;-72
2023/09/27 11:09:19;;;;;;;16.45;8.75;;;;;;;22.82;92.96;100921.75;5013858;28;20203;-72
2023/09/27 11:11:50;;;;;;;17.55;10.32;;;;;;;22.75;89.06;100914.69;5015989;28;20204;-71